Time;durP1;ratioP1;P1;durP2;ratioP2;P2;SDS_P1;SDS_P2;PMS_P1;PMS_P2;Temp;Humidity;BMP_temperature;BMP_pressure;BME280_temperature;BME280_humidity;BME280_pressure;Samples;Min_cycle;Max_cycle;Signal;HPM_P1;HPM_P2
2022/03/29 00:04:45;;;;;;;16.53;9.47;;;11.60;76.00;;;;;;10436015;28;20346;-69
2022/03/29 00:09:46;;;;;;;17.03;11.53;;;11.50;76.30;;;;;;10443184;28;20979;-70
2022/03/29 00:14:48;;;;;;;15.80;11.93;;;11.50;73.80;;;;;;10433118;28;20229;-69
2022/03/29 00:19:49;;;;;;;14.67;10.57;;;11.60;74.30;;;;;;10432494;28;20694;-72
2022/03/29 00:24:50;;;;;;;17.40;10.37;;;11.50;76.00;;;;;;10439037;28;20215;-71
2022/03/29 00:29:53;;;;;;;16.43;10.73;;;11.60;77.50;;;;;;10444103;28;20223;-70
2022/03/29 00:34:54;;;;;;;15.07;11.10;;;11.60;77.80;;;;;;10433063;28;20584;-71
2022/03/29 00:39:54;;;;;;;16.07;12.27;;;11.60;78.10;;;;;;10437894;28;20335;-70
2022/03/29 00:44:56;;;;;;;14.70;11.40;;;11.50;78.80;;;;;;10438930;28;20226;-70
2022/03/29 00:49:58;;;;;;;18.50;11.70;;;11.40;78.80;;;;;;10430585;28;20286;-70
2022/03/29 00:55:02;;;;;;;12.70;9.73;;;11.40;79.60;;;;;;10431626;28;20857;-70
2022/03/29 01:00:04;;;;;;;14.20;9.60;;;11.30;79.50;;;;;;10433863;28;20274;-71
2022/03/29 01:05:05;;;;;;;14.97;9.63;;;11.30;80.30;;;;;;10430328;28;20680;-70
2022/03/29 01:10:07;;;;;;;11.63;9.23;;;11.30;80.60;;;;;;10439107;28;21254;-71
2022/03/29 01:15:10;;;;;;;11.67;9.37;;;11.30;80.90;;;;;;10446756;28;20187;-72
2022/03/29 01:20:22;;;;;;;16.47;10.20;;;11.20;82.00;;;;;;10429547;28;20220;-71
2022/03/29 01:25:37;;;;;;;11.20;9.50;;;11.20;83.00;;;;;;10435630;28;20184;-70
2022/03/29 01:30:39;;;;;;;12.10;9.30;;;11.20;82.80;;;;;;10433988;28;20223;-70
2022/03/29 01:35:40;;;;;;;13.93;8.93;;;11.20;83.30;;;;;;10422751;28;20253;-72
2022/03/29 01:40:42;;;;;;;11.37;9.20;;;11.20;84.00;;;;;;10443025;28;20248;-71
2022/03/29 01:45:42;;;;;;;12.90;9.67;;;11.10;84.80;;;;;;10434236;28;20231;-70
2022/03/29 01:50:43;;;;;;;13.77;9.43;;;11.10;85.80;;;;;;10434891;28;20228;-71
2022/03/29 01:55:45;;;;;;;15.40;10.00;;;11.00;86.40;;;;;;10429962;28;20220;-71
2022/03/29 02:00:45;;;;;;;15.13;9.90;;;10.90;87.50;;;;;;10433320;28;20323;-71
2022/03/29 02:05:46;;;;;;;16.47;11.00;;;10.80;87.40;;;;;;10430359;28;20354;-70
2022/03/29 02:10:47;;;;;;;17.10;11.23;;;10.90;88.00;;;;;;10427288;28;20224;-70
2022/03/29 02:15:48;;;;;;;16.47;11.17;;;10.80;88.80;;;;;;10434021;28;20310;-71
2022/03/29 02:20:49;;;;;;;18.27;12.60;;;10.80;90.70;;;;;;10435295;28;20235;-71
2022/03/29 02:25:50;;;;;;;24.67;13.57;;;10.80;90.00;;;;;;10428010;28;20917;-72
2022/03/29 02:30:51;;;;;;;28.60;17.53;;;10.90;89.90;;;;;;10427164;28;20243;-72
2022/03/29 02:35:52;;;;;;;25.70;16.33;;;11.00;90.50;;;;;;10428527;28;20308;-73
2022/03/29 02:40:57;;;;;;;24.20;15.13;;;11.10;90.80;;;;;;10430901;28;20573;-72
2022/03/29 02:45:58;;;;;;;26.67;16.70;;;11.10;91.20;;;;;;10439130;28;20303;-70
2022/03/29 02:51:01;;;;;;;26.27;17.97;;;11.00;91.90;;;;;;10433553;28;20227;-71
2022/03/29 02:56:02;;;;;;;29.33;17.77;;;11.10;92.70;;;;;;10433677;28;20212;-71
2022/03/29 03:01:02;;;;;;;29.37;18.47;;;11.10;93.00;;;;;;10434303;28;20302;-71
2022/03/29 03:06:03;;;;;;;27.07;18.47;;;11.20;93.30;;;;;;10434310;28;20224;-71
2022/03/29 03:11:04;;;;;;;33.10;19.93;;;11.30;93.80;;;;;;10424933;28;20242;-72
2022/03/29 03:16:04;;;;;;;30.20;19.97;;;11.30;94.40;;;;;;10432847;28;20247;-71
2022/03/29 03:21:05;;;;;;;28.93;19.70;;;11.30;94.80;;;;;;10424881;28;20267;-70
2022/03/29 03:26:06;;;;;;;27.70;19.63;;;11.30;95.20;;;;;;10424861;28;20226;-71
2022/03/29 03:31:06;;;;;;;29.63;18.27;;;11.30;95.40;;;;;;10426738;28;20223;-71
2022/03/29 03:36:07;;;;;;;31.93;18.77;;;11.30;95.50;;;;;;10434675;28;20685;-72
2022/03/29 03:41:08;;;;;;;30.60;18.73;;;11.30;95.90;;;;;;10432179;28;20231;-71
2022/03/29 03:46:08;;;;;;;31.63;19.73;;;11.30;96.10;;;;;;10424560;28;20575;-71
2022/03/29 03:51:09;;;;;;;30.70;19.73;;;11.20;96.90;;;;;;10427322;28;20311;-72
2022/03/29 03:56:10;;;;;;;30.13;21.10;;;11.10;98.00;;;;;;10433235;28;20219;-70
2022/03/29 04:01:12;;;;;;;37.83;22.07;;;11.10;99.00;;;;;;10426946;28;20283;-71
2022/03/29 04:06:16;;;;;;;34.03;21.70;;;11.10;99.90;;;;;;10431811;28;20227;-70
2022/03/29 04:11:18;;;;;;;36.10;21.93;;;11.10;99.90;;;;;;10435216;28;20705;-71
2022/03/29 04:16:20;;;;;;;29.63;21.40;;;11.10;99.90;;;;;;10437979;28;20250;-72
2022/03/29 04:21:21;;;;;;;32.77;22.00;;;11.10;99.90;;;;;;10431211;28;20271;-71
2022/03/29 04:26:24;;;;;;;32.23;22.17;;;11.10;99.90;;;;;;10437738;28;20215;-70
2022/03/29 04:31:25;;;;;;;35.57;23.27;;;11.00;99.90;;;;;;10423217;28;20233;-71
2022/03/29 04:36:28;;;;;;;37.67;23.77;;;10.90;99.90;;;;;;10441882;28;20596;-71
2022/03/29 04:41:29;;;;;;;35.33;22.80;;;10.90;99.90;;;;;;10429373;28;20274;-72
2022/03/29 04:46:30;;;;;;;31.03;22.53;;;10.90;99.90;;;;;;10434558;28;20208;-72
2022/03/29 04:51:33;;;;;;;38.23;22.93;;;10.80;99.90;;;;;;10441520;28;20216;-72
2022/03/29 04:56:34;;;;;;;36.30;23.60;;;10.80;99.90;;;;;;10453881;28;20212;-72
2022/03/29 05:01:39;;;;;;;39.80;23.63;;;10.70;99.90;;;;;;10420672;28;20569;-73
2022/03/29 05:06:40;;;;;;;37.93;23.37;;;10.70;99.90;;;;;;10391659;28;20636;-73
2022/03/29 05:11:40;;;;;;;36.07;23.60;;;10.80;99.90;;;;;;10392449;28;20243;-73
2022/03/29 05:16:41;;;;;;;37.00;25.30;;;10.80;99.90;;;;;;10392594;28;20213;-72
2022/03/29 05:21:42;;;;;;;40.30;24.77;;;10.70;99.90;;;;;;10390429;28;20225;-71
2022/03/29 05:26:43;;;;;;;41.57;23.83;;;10.70;99.90;;;;;;10393066;28;20295;-72
2022/03/29 05:31:44;;;;;;;46.23;24.23;;;10.80;99.90;;;;;;10390776;28;20734;-72
2022/03/29 05:36:45;;;;;;;35.33;22.87;;;10.80;99.90;;;;;;10391898;28;20236;-72
2022/03/29 05:41:45;;;;;;;39.03;23.57;;;10.80;99.90;;;;;;10388564;28;20855;-72
2022/03/29 05:52:06;;;;;;;36.43;24.10;;;10.90;99.90;;;;;;10386480;28;20224;-71
2022/03/29 05:57:07;;;;;;;41.43;24.13;;;11.10;99.90;;;;;;10398749;28;20217;-71
2022/03/29 06:02:08;;;;;;;34.70;23.00;;;11.10;99.90;;;;;;10385604;28;20236;-71
2022/03/29 06:07:09;;;;;;;37.47;22.27;;;11.10;99.90;;;;;;10392608;28;20962;-69
2022/03/29 06:12:10;;;;;;;42.93;22.93;;;11.20;99.90;;;;;;10385845;28;20279;-70
2022/03/29 06:17:10;;;;;;;36.33;23.00;;;11.20;99.90;;;;;;10393595;28;20676;-71
2022/03/29 06:22:11;;;;;;;40.50;24.33;;;11.20;99.90;;;;;;10391830;28;20209;-70
2022/03/29 06:27:12;;;;;;;38.20;23.27;;;11.30;99.90;;;;;;10385230;28;20657;-69
2022/03/29 06:32:14;;;;;;;44.17;24.13;;;11.30;99.90;;;;;;10391201;28;20262;-70
2022/03/29 06:37:14;;;;;;;36.30;21.70;;;11.50;99.90;;;;;;10394257;28;20277;-70
2022/03/29 06:42:18;;;;;;;33.63;22.77;;;11.70;99.90;;;;;;10390851;28;20570;-70
2022/03/29 06:47:18;;;;;;;40.43;23.53;;;11.80;99.90;;;;;;10413549;28;20227;-70
2022/03/29 06:52:19;;;;;;;33.70;22.60;;;11.90;99.90;;;;;;10430520;28;20251;-70
2022/03/29 06:57:19;;;;;;;34.97;21.77;;;12.00;99.90;;;;;;10423182;28;20228;-70
2022/03/29 07:02:20;;;;;;;33.43;20.23;;;12.20;99.90;;;;;;10430779;28;20223;-71
2022/03/29 07:07:21;;;;;;;35.43;22.53;;;12.30;99.90;;;;;;10430117;28;20220;-70
2022/03/29 07:12:21;;;;;;;29.87;20.70;;;12.40;99.90;;;;;;10426634;28;20227;-69
2022/03/29 07:17:22;;;;;;;36.20;22.07;;;12.50;99.90;;;;;;10429943;28;20652;-70
2022/03/29 07:22:24;;;;;;;36.37;21.83;;;12.80;99.90;;;;;;10422658;28;20212;-69
2022/03/29 07:27:25;;;;;;;40.87;22.40;;;13.00;99.90;;;;;;10427090;28;20894;-69
2022/03/29 07:32:29;;;;;;;36.77;20.80;;;13.40;99.90;;;;;;10428764;28;20231;-69
2022/03/29 07:37:29;;;;;;;32.77;20.30;;;13.80;99.90;;;;;;10425936;28;20231;-69
2022/03/29 07:42:32;;;;;;;32.13;20.87;;;14.10;99.90;;;;;;10426987;28;20693;-70
2022/03/29 07:47:34;;;;;;;35.20;20.77;;;14.40;99.90;;;;;;10427547;28;20223;-70
2022/03/29 07:52:40;;;;;;;33.50;20.70;;;14.80;98.00;;;;;;10427780;28;20767;-70
2022/03/29 07:57:40;;;;;;;30.67;19.37;;;15.10;97.40;;;;;;10428827;28;20299;-70
2022/03/29 08:02:41;;;;;;;36.83;21.60;;;15.30;96.20;;;;;;10434085;28;20756;-70
2022/03/29 08:07:41;;;;;;;29.03;20.13;;;15.50;95.50;;;;;;10442258;28;20220;-70
2022/03/29 08:12:43;;;;;;;27.97;20.17;;;15.20;95.30;;;;;;10439229;28;20612;-69
2022/03/29 08:17:43;;;;;;;33.53;20.53;;;15.20;95.20;;;;;;10433763;28;20610;-70
2022/03/29 08:22:46;;;;;;;31.10;20.87;;;15.40;95.00;;;;;;10434590;28;20213;-69
2022/03/29 08:27:48;;;;;;;33.27;20.93;;;15.40;94.30;;;;;;10432933;28;20221;-70
2022/03/29 08:32:49;;;;;;;31.33;21.37;;;15.50;94.40;;;;;;10435706;28;20582;-69
2022/03/29 08:37:50;;;;;;;32.17;21.07;;;15.60;94.00;;;;;;10437840;28;20224;-71
2022/03/29 08:42:54;;;;;;;35.83;21.57;;;15.90;93.30;;;;;;10431920;28;20222;-71
2022/03/29 08:47:57;;;;;;;34.17;22.57;;;16.10;92.60;;;;;;10435850;28;20233;-71
2022/03/29 08:52:58;;;;;;;33.07;22.20;;;16.60;91.30;;;;;;10430629;28;20223;-70
2022/03/29 08:57:58;;;;;;;33.23;22.33;;;17.00;90.30;;;;;;10427183;28;20227;-70
2022/03/29 09:02:59;;;;;;;37.77;23.80;;;16.90;88.70;;;;;;10435130;28;20621;-70
2022/03/29 09:08:03;;;;;;;35.67;22.47;;;16.70;89.60;;;;;;10441704;28;20219;-71
2022/03/29 09:13:25;;;;;;;35.90;24.40;;;16.60;89.40;;;;;;10427769;28;20658;-70
2022/03/29 09:18:27;;;;;;;34.37;22.77;;;16.60;90.10;;;;;;10430675;28;20595;-70
2022/03/29 09:23:28;;;;;;;31.57;22.33;;;16.50;90.00;;;;;;10433245;28;20316;-70
2022/03/29 09:28:38;;;;;;;32.50;22.50;;;16.70;88.90;;;;;;10431505;28;20227;-69
2022/03/29 09:33:41;;;;;;;35.43;22.90;;;17.10;86.40;;;;;;10430098;28;20278;-71
2022/03/29 09:38:47;;;;;;;36.00;22.20;;;17.10;85.90;;;;;;10432449;28;20235;-70
2022/03/29 09:44:08;;;;;;;30.30;22.40;;;17.00;85.20;;;;;;10436242;28;20243;-70
2022/03/29 09:49:09;;;;;;;30.17;22.77;;;16.80;85.60;;;;;;10427515;28;20323;-70
2022/03/29 09:54:09;;;;;;;34.83;23.43;;;17.30;84.20;;;;;;10432994;28;20775;-70
2022/03/29 09:59:14;;;;;;;33.83;22.37;;;17.40;82.80;;;;;;10428288;28;20231;-70
2022/03/29 10:04:17;;;;;;;30.97;21.87;;;17.20;82.80;;;;;;10433010;28;20211;-70
2022/03/29 10:09:32;;;;;;;34.13;23.07;;;18.40;80.00;;;;;;10431354;28;20224;-70
2022/03/29 10:14:41;;;;;;;34.20;24.40;;;20.00;70.90;;;;;;10430870;28;20207;-70
2022/03/29 10:19:44;;;;;;;32.37;21.10;;;20.70;67.00;;;;;;10434372;28;20220;-71
2022/03/29 10:24:44;;;;;;;34.37;23.40;;;20.90;63.60;;;;;;10426788;28;20223;-71
2022/03/29 10:29:45;;;;;;;31.17;22.23;;;21.40;62.10;;;;;;10431140;28;20793;-71
2022/03/29 10:35:04;;;;;;;28.87;22.43;;;21.80;59.50;;;;;;10433512;28;20208;-71
2022/03/29 10:40:05;;;;;;;29.27;21.53;;;22.60;55.80;;;;;;10435639;28;20688;-71
2022/03/29 10:45:12;;;;;;;32.67;23.80;;;23.00;54.90;;;;;;10423983;28;20226;-70
2022/03/29 10:50:14;;;;;;;29.87;23.70;;;23.30;52.60;;;;;;10431770;28;20218;-71
2022/03/29 10:55:25;;;;;;;33.53;23.87;;;22.60;52.90;;;;;;10425905;28;20211;-71
2022/03/29 11:00:31;;;;;;;33.67;24.53;;;22.80;52.10;;;;;;10429666;28;20227;-70
2022/03/29 11:05:31;;;;;;;32.37;24.20;;;23.70;50.70;;;;;;10422345;28;20614;-70
2022/03/29 11:10:42;;;;;;;30.20;23.07;;;23.00;51.00;;;;;;10426585;28;20212;-71
2022/03/29 11:15:43;;;;;;;30.93;24.43;;;22.20;52.60;;;;;;10432906;28;20827;-72
2022/03/29 11:21:02;;;;;;;28.77;21.93;;;22.30;52.00;;;;;;10425405;28;20226;-70
2022/03/29 11:26:12;;;;;;;30.47;21.47;;;21.70;53.50;;;;;;10432268;28;20208;-70
2022/03/29 11:31:13;;;;;;;28.30;21.03;;;21.10;55.30;;;;;;10425531;28;20220;-71
2022/03/29 11:36:13;;;;;;;29.40;21.17;;;20.80;55.60;;;;;;10436078;28;20882;-70
2022/03/29 11:41:29;;;;;;;30.80;21.60;;;20.70;55.70;;;;;;10431957;28;20231;-71
2022/03/29 11:46:43;;;;;;;30.27;20.10;;;20.70;55.80;;;;;;10437310;28;20215;-71
2022/03/29 11:52:11;;;;;;;30.17;20.83;;;20.50;56.00;;;;;;10446045;28;20219;-71
2022/03/29 11:57:17;;;;;;;26.37;20.07;;;20.60;55.90;;;;;;10448121;28;20630;-70
2022/03/29 12:02:18;;;;;;;27.80;20.33;;;20.30;56.50;;;;;;10438017;28;20270;-70
2022/03/29 12:07:44;;;;;;;29.33;20.10;;;20.00;57.40;;;;;;10433397;28;20228;-70
2022/03/29 12:12:51;;;;;;;24.47;18.67;;;19.70;57.70;;;;;;10430932;28;20631;-71
2022/03/29 12:23:26;;;;;;;31.17;19.37;;;19.70;56.90;;;;;;10439553;28;20712;-70
2022/03/29 12:28:27;;;;;;;25.63;17.30;;;19.90;56.80;;;;;;10432161;28;20227;-71
2022/03/29 12:33:27;;;;;;;26.50;18.97;;;20.10;56.60;;;;;;10430275;28;20216;-71
2022/03/29 12:38:48;;;;;;;29.37;20.87;;;20.10;55.60;;;;;;10439930;28;20239;-70
2022/03/29 12:43:55;;;;;;;24.57;16.83;;;19.90;56.20;;;;;;10431288;28;20316;-71
2022/03/29 12:48:57;;;;;;;28.20;19.43;;;20.20;56.20;;;;;;10437800;28;20420;-70
2022/03/29 12:54:03;;;;;;;29.73;19.37;;;20.30;55.00;;;;;;10436662;28;20274;-71
2022/03/29 12:59:32;;;;;;;28.97;20.33;;;20.20;55.30;;;;;;10428724;28;20224;-71
2022/03/29 13:04:43;;;;;;;27.97;19.00;;;20.00;55.10;;;;;;10441073;28;20208;-70
2022/03/29 13:09:59;;;;;;;25.07;18.03;;;20.10;55.30;;;;;;10431881;28;20220;-71
2022/03/29 13:15:00;;;;;;;32.30;19.53;;;20.00;55.90;;;;;;10429216;28;20616;-71
2022/03/29 13:20:00;;;;;;;28.43;20.77;;;20.00;55.20;;;;;;10436549;28;20256;-70
2022/03/29 13:25:01;;;;;;;28.10;18.93;;;20.10;54.80;;;;;;10429507;28;20217;-71
2022/03/29 13:30:02;;;;;;;30.63;20.20;;;20.10;54.70;;;;;;10435760;28;20251;-69
2022/03/29 13:35:06;;;;;;;26.63;19.83;;;20.00;54.60;;;;;;10426491;28;20287;-70
2022/03/29 13:40:09;;;;;;;29.53;19.97;;;20.10;54.10;;;;;;10443384;28;20228;-71
2022/03/29 13:45:10;;;;;;;27.10;20.87;;;20.30;53.40;;;;;;10429541;28;20242;-71
2022/03/29 13:50:10;;;;;;;29.03;19.17;;;20.20;53.20;;;;;;10436289;28;20184;-71
2022/03/29 13:55:11;;;;;;;31.57;20.37;;;20.30;53.50;;;;;;10428373;28;20184;-70
2022/03/29 14:00:12;;;;;;;31.13;20.73;;;20.60;53.00;;;;;;10433367;28;20211;-70
2022/03/29 14:05:13;;;;;;;27.27;20.63;;;20.00;53.80;;;;;;10427663;28;20173;-71
2022/03/29 14:10:14;;;;;;;31.43;22.77;;;19.70;54.20;;;;;;10432056;28;20583;-70
2022/03/29 14:15:15;;;;;;;28.17;20.60;;;19.70;53.80;;;;;;10424873;28;20203;-70
2022/03/29 14:20:15;;;;;;;29.50;19.73;;;19.50;54.20;;;;;;10433306;28;20196;-71
2022/03/29 14:25:17;;;;;;;27.83;19.73;;;19.50;54.20;;;;;;10433967;28;20176;-70
2022/03/29 14:30:18;;;;;;;26.70;18.67;;;19.70;54.40;;;;;;10431205;28;20179;-70
2022/03/29 14:35:19;;;;;;;26.27;18.90;;;19.90;53.40;;;;;;10428275;28;20213;-71
2022/03/29 14:40:20;;;;;;;28.40;19.87;;;20.00;53.10;;;;;;10433936;28;20248;-70
2022/03/29 14:45:21;;;;;;;31.90;22.13;;;20.10;53.10;;;;;;10431460;28;20184;-71
2022/03/29 14:50:23;;;;;;;38.00;22.10;;;20.10;52.80;;;;;;10409854;28;20193;-71
2022/03/29 14:55:25;;;;;;;28.77;20.67;;;20.10;53.20;;;;;;10431359;28;20245;-71
2022/03/29 15:00:25;;;;;;;31.73;21.17;;;20.10;53.20;;;;;;10435124;28;20748;-70
2022/03/29 15:05:26;;;;;;;29.23;21.00;;;20.00;53.50;;;;;;10444959;28;20298;-70
2022/03/29 15:10:27;;;;;;;29.27;19.60;;;19.80;53.90;;;;;;10429385;28;20675;-70
2022/03/29 15:15:34;;;;;;;28.30;19.27;;;19.60;54.30;;;;;;10428207;28;20239;-70
2022/03/29 15:20:34;;;;;;;30.50;19.07;;;19.30;54.30;;;;;;10428783;28;20247;-70
2022/03/29 15:25:35;;;;;;;31.50;19.60;;;19.00;54.90;;;;;;10428592;28;20226;-70
2022/03/29 15:30:36;;;;;;;29.23;18.77;;;18.90;55.40;;;;;;10432871;28;20273;-70
2022/03/29 15:35:37;;;;;;;29.43;18.30;;;18.70;55.90;;;;;;10427086;28;20291;-71
2022/03/29 15:40:39;;;;;;;25.90;17.57;;;18.50;56.10;;;;;;10429029;28;20258;-70
2022/03/29 15:45:43;;;;;;;28.30;17.83;;;18.50;56.20;;;;;;10428145;28;20710;-70
2022/03/29 15:50:44;;;;;;;27.03;17.43;;;18.50;56.20;;;;;;10433663;28;20799;-72
2022/03/29 15:55:46;;;;;;;31.63;17.03;;;18.30;56.30;;;;;;10431373;28;20301;-70
2022/03/29 16:00:47;;;;;;;27.37;17.33;;;18.10;56.60;;;;;;10426702;28;20585;-70
2022/03/29 16:05:48;;;;;;;24.63;15.83;;;17.90;56.80;;;;;;10429019;28;20219;-70
2022/03/29 16:10:48;;;;;;;31.23;16.63;;;17.70;57.70;;;;;;10426857;28;20246;-70
2022/03/29 16:15:49;;;;;;;22.23;14.83;;;17.60;58.00;;;;;;10428837;28;20218;-70
2022/03/29 16:20:50;;;;;;;26.30;15.20;;;17.50;58.60;;;;;;10431523;28;20291;-70
2022/03/29 16:25:51;;;;;;;23.87;14.67;;;17.40;58.70;;;;;;10439557;28;20219;-71
2022/03/29 16:30:51;;;;;;;22.77;14.20;;;17.30;58.80;;;;;;10433433;28;20219;-70
2022/03/29 16:35:52;;;;;;;22.40;12.60;;;17.20;59.10;;;;;;10440403;28;20273;-71
2022/03/29 16:40:53;;;;;;;17.90;11.47;;;17.10;60.20;;;;;;10426626;28;20237;-72
2022/03/29 16:45:54;;;;;;;21.67;11.90;;;17.00;61.20;;;;;;10440468;28;20222;-72
2022/03/29 16:50:56;;;;;;;21.90;11.00;;;16.90;61.20;;;;;;10430005;28;20210;-71
2022/03/29 16:55:57;;;;;;;18.03;11.23;;;16.80;61.60;;;;;;10436677;28;20286;-70
2022/03/29 17:00:58;;;;;;;18.63;10.03;;;16.80;61.70;;;;;;10433018;28;20292;-71
2022/03/29 17:05:58;;;;;;;18.40;11.13;;;16.70;61.90;;;;;;10434934;28;20226;-71
2022/03/29 17:10:59;;;;;;;16.50;11.13;;;16.50;62.10;;;;;;10448643;28;20691;-70
2022/03/29 17:16:01;;;;;;;19.53;11.20;;;16.50;62.90;;;;;;10429269;28;20225;-71
2022/03/29 17:21:03;;;;;;;15.03;10.63;;;16.40;62.60;;;;;;10436556;28;20319;-69
2022/03/29 17:26:04;;;;;;;14.40;9.97;;;16.30;62.70;;;;;;10435460;28;20226;-70
2022/03/29 17:31:05;;;;;;;13.87;9.03;;;16.20;62.40;;;;;;10430112;28;20225;-70
2022/03/29 17:36:05;;;;;;;18.07;8.47;;;16.10;62.90;;;;;;10446992;28;20217;-71
2022/03/29 17:41:06;;;;;;;13.80;9.37;;;15.90;63.50;;;;;;10434471;28;20631;-71
2022/03/29 17:46:10;;;;;;;14.93;8.30;;;15.80;63.60;;;;;;10435519;28;20221;-70
2022/03/29 17:51:12;;;;;;;14.63;9.33;;;15.70;64.20;;;;;;10428111;28;20229;-71
2022/03/29 17:56:12;;;;;;;13.77;8.83;;;15.70;64.40;;;;;;10427791;28;20745;-71
2022/03/29 18:01:14;;;;;;;14.50;8.57;;;15.60;64.90;;;;;;10425699;28;20335;-71
2022/03/29 18:06:15;;;;;;;16.73;9.10;;;15.60;64.90;;;;;;10433683;28;20319;-71
2022/03/29 18:11:16;;;;;;;16.73;8.97;;;15.50;65.40;;;;;;10426269;28;20632;-71
2022/03/29 18:16:17;;;;;;;19.77;9.07;;;15.50;64.90;;;;;;10432699;28;20596;-71
2022/03/29 18:21:18;;;;;;;12.10;8.43;;;15.50;65.60;;;;;;10437440;28;20222;-71
2022/03/29 18:26:19;;;;;;;12.27;8.20;;;15.40;67.10;;;;;;10437213;28;20238;-70
2022/03/29 18:31:20;;;;;;;11.50;7.70;;;15.40;65.90;;;;;;10429776;28;20228;-71
2022/03/29 18:36:23;;;;;;;11.73;7.73;;;15.30;65.70;;;;;;10437274;28;20232;-71
2022/03/29 18:41:27;;;;;;;11.17;7.33;;;15.20;66.50;;;;;;10433708;28;20231;-72
2022/03/29 18:46:28;;;;;;;12.07;7.87;;;15.20;66.50;;;;;;10427183;28;20223;-71
2022/03/29 18:51:29;;;;;;;11.27;7.20;;;15.20;66.70;;;;;;10430342;28;20220;-71
2022/03/29 18:56:30;;;;;;;14.67;8.00;;;15.20;66.60;;;;;;10441461;28;20221;-73
2022/03/29 19:01:31;;;;;;;12.97;8.63;;;15.10;66.30;;;;;;10428133;28;20256;-75
2022/03/29 19:06:33;;;;;;;10.83;7.63;;;15.00;67.00;;;;;;10439147;28;20242;-72
2022/03/29 19:11:34;;;;;;;11.33;7.83;;;14.90;67.70;;;;;;10437367;28;20690;-72
2022/03/29 19:16:38;;;;;;;12.47;8.10;;;14.70;68.40;;;;;;10441040;28;20214;-74
2022/03/29 19:21:42;;;;;;;11.93;7.73;;;14.60;69.10;;;;;;10434164;28;20240;-73
2022/03/29 19:26:51;;;;;;;12.30;7.07;;;14.60;68.80;;;;;;10428875;28;20226;-74
2022/03/29 19:31:52;;;;;;;10.90;7.60;;;14.50;68.90;;;;;;10430687;28;20216;-73
2022/03/29 19:36:53;;;;;;;12.30;7.67;;;14.50;69.20;;;;;;10424090;28;20233;-73
2022/03/29 19:41:57;;;;;;;11.87;7.53;;;14.50;68.70;;;;;;10426373;28;20234;-72
2022/03/29 19:46:59;;;;;;;10.00;7.10;;;14.50;68.70;;;;;;10423842;28;20219;-72
2022/03/29 19:52:00;;;;;;;11.23;7.93;;;14.50;69.80;;;;;;10437232;28;20800;-71
2022/03/29 19:57:03;;;;;;;13.40;7.73;;;14.40;71.20;;;;;;10447938;28;20261;-71
2022/03/29 20:02:04;;;;;;;14.57;7.47;;;14.30;71.70;;;;;;10444896;28;20216;-74
2022/03/29 20:07:06;;;;;;;13.63;8.37;;;14.30;71.60;;;;;;10429144;28;20220;-73
2022/03/29 20:12:08;;;;;;;15.20;7.93;;;14.30;71.20;;;;;;10434910;28;20302;-72
2022/03/29 20:17:09;;;;;;;13.80;8.40;;;14.20;71.40;;;;;;10438690;28;20213;-72
2022/03/29 20:22:10;;;;;;;14.40;8.07;;;14.10;72.00;;;;;;10443026;28;20715;-71
2022/03/29 20:27:11;;;;;;;13.63;7.37;;;14.10;71.60;;;;;;10440268;28;20298;-70
2022/03/29 20:32:17;;;;;;;11.90;8.20;;;14.00;72.10;;;;;;10432602;28;20228;-71
2022/03/29 20:37:18;;;;;;;12.70;8.07;;;13.90;72.10;;;;;;10445603;28;20646;-71
2022/03/29 20:42:18;;;;;;;14.27;7.33;;;13.80;72.50;;;;;;10432515;28;20240;-71
2022/03/29 20:47:20;;;;;;;12.33;7.57;;;13.70;72.40;;;;;;10437977;28;20239;-71
2022/03/29 20:52:21;;;;;;;12.93;7.87;;;13.70;72.80;;;;;;10438868;28;20227;-71
2022/03/29 20:57:22;;;;;;;13.43;7.00;;;13.60;73.20;;;;;;10438816;28;20223;-71
2022/03/29 21:02:22;;;;;;;10.37;6.73;;;13.60;73.50;;;;;;10440209;28;20216;-72
2022/03/29 21:07:23;;;;;;;12.27;7.07;;;13.60;73.60;;;;;;10429416;28;20236;-72
2022/03/29 21:12:24;;;;;;;11.37;6.97;;;13.60;73.70;;;;;;10440096;28;20213;-72
2022/03/29 21:17:24;;;;;;;9.20;6.70;;;13.60;74.00;;;;;;10441284;28;20219;-71
2022/03/29 21:22:25;;;;;;;11.63;7.13;;;13.50;74.30;;;;;;10441139;28;20295;-71
2022/03/29 21:27:26;;;;;;;12.77;7.30;;;13.50;74.90;;;;;;10435866;28;20856;-71
2022/03/29 21:32:28;;;;;;;15.47;7.57;;;13.40;75.70;;;;;;10433670;28;20250;-71
2022/03/29 21:37:28;;;;;;;11.43;7.00;;;13.40;76.60;;;;;;10433460;28;20224;-72
2022/03/29 21:42:29;;;;;;;10.13;7.33;;;13.30;77.40;;;;;;10431686;28;20668;-72
2022/03/29 21:47:30;;;;;;;11.07;8.20;;;13.30;77.80;;;;;;10433656;28;20217;-71
2022/03/29 21:52:30;;;;;;;13.47;9.17;;;13.20;78.10;;;;;;10431176;28;20211;-71
2022/03/29 21:57:32;;;;;;;11.27;7.93;;;13.20;78.60;;;;;;10431734;28;20217;-72
2022/03/29 22:02:32;;;;;;;12.50;8.57;;;13.10;79.10;;;;;;10430583;28;20709;-72
2022/03/29 22:07:34;;;;;;;11.63;8.83;;;13.00;79.40;;;;;;10429035;28;20208;-72
2022/03/29 22:12:35;;;;;;;14.30;8.60;;;13.00;79.50;;;;;;10428934;28;20309;-71
2022/03/29 22:17:36;;;;;;;14.03;8.97;;;12.90;79.00;;;;;;10422487;28;20215;-71
2022/03/29 22:22:37;;;;;;;11.60;8.37;;;12.80;79.50;;;;;;10430461;28;20354;-71
2022/03/29 22:27:38;;;;;;;12.10;9.00;;;12.80;79.80;;;;;;10433350;28;20304;-71
2022/03/29 22:32:40;;;;;;;14.33;9.07;;;12.80;79.60;;;;;;10442138;28;20212;-71
2022/03/29 22:37:51;;;;;;;16.07;9.23;;;12.70;79.30;;;;;;10431063;28;20723;-71
2022/03/29 22:42:53;;;;;;;14.87;9.20;;;12.70;79.60;;;;;;10414909;28;20212;-71
2022/03/29 22:47:55;;;;;;;14.47;9.50;;;12.60;79.50;;;;;;10426680;28;20220;-70
2022/03/29 22:52:57;;;;;;;14.73;9.53;;;12.60;79.50;;;;;;10432866;28;20222;-71
2022/03/29 22:57:58;;;;;;;11.33;8.80;;;12.50;79.10;;;;;;10427773;28;20278;-72
2022/03/29 23:02:58;;;;;;;12.43;8.63;;;12.40;79.00;;;;;;10434653;28;20270;-71
2022/03/29 23:07:59;;;;;;;11.47;9.17;;;12.40;79.10;;;;;;10441031;28;20228;-72
2022/03/29 23:12:59;;;;;;;11.50;8.63;;;12.40;79.00;;;;;;10439442;28;20229;-72
2022/03/29 23:18:00;;;;;;;11.70;9.00;;;12.40;78.70;;;;;;10426372;28;20722;-72
2022/03/29 23:23:01;;;;;;;13.77;9.90;;;12.40;78.20;;;;;;10423920;28;20940;-71
2022/03/29 23:28:02;;;;;;;12.67;9.20;;;12.30;78.00;;;;;;10439619;28;20290;-72
2022/03/29 23:33:06;;;;;;;12.70;9.50;;;12.30;78.10;;;;;;10433295;28;20278;-71
2022/03/29 23:38:06;;;;;;;13.00;10.50;;;12.20;77.90;;;;;;10442266;28;20224;-71
2022/03/29 23:43:07;;;;;;;11.37;9.20;;;12.20;77.60;;;;;;10441625;28;20828;-72
2022/03/29 23:48:09;;;;;;;12.97;9.83;;;12.20;78.00;;;;;;10433804;28;20220;-71
2022/03/29 23:53:10;;;;;;;13.13;9.77;;;12.20;78.00;;;;;;10441280;28;20285;-71
2022/03/29 23:58:11;;;;;;;16.53;10.50;;;12.20;78.10;;;;;;10440413;28;20246;-73
